createdAt,value
2023-03-29T00:00:41.782Z,-1.90
2023-03-29T00:03:28.206Z,-1.71
2023-03-29T00:06:22.083Z,-1.57
2023-03-29T00:09:09.637Z,-2.38
2023-03-29T00:11:55.326Z,-1.79
2023-03-29T00:14:40.866Z,-1.65
2023-03-29T00:17:26.428Z,-1.64
2023-03-29T00:20:12.716Z,-2.74
2023-03-29T00:22:58.105Z,-1.60
2023-03-29T00:25:45.278Z,-1.81
2023-03-29T00:28:31.401Z,-1.67
2023-03-29T00:31:17.853Z,-2.95
2023-03-29T00:34:03.866Z,-2.03
2023-03-29T00:36:53.160Z,-3.19
2023-03-29T00:39:42.018Z,-2.16
2023-03-29T00:42:27.777Z,-3.55
2023-03-29T00:45:13.357Z,-2.10
2023-03-29T00:48:02.966Z,-2.25
2023-03-29T00:50:54.003Z,-2.22
2023-03-29T00:53:46.877Z,-2.35
2023-03-29T00:56:37.101Z,-3.72
2023-03-29T00:59:28.239Z,-3.70
2023-03-29T01:02:18.113Z,-3.32
2023-03-29T01:05:22.587Z,-3.46
2023-03-29T01:08:18.115Z,-1.98
2023-03-29T01:11:11.585Z,-1.97
2023-03-29T01:14:06.538Z,-3.06
2023-03-29T01:16:53.362Z,-3.23
2023-03-29T01:19:48.202Z,-2.26
2023-03-29T01:22:58.213Z,-1.97
2023-03-29T01:26:01.157Z,-1.96
2023-03-29T01:28:53.139Z,-3.30
2023-03-29T01:31:44.057Z,-3.56
2023-03-29T01:34:40.976Z,-2.28
2023-03-29T01:38:02.947Z,-1.84
2023-03-29T01:40:48.516Z,-3.01
2023-03-29T01:43:43.586Z,-2.30
2023-03-29T01:46:45.782Z,-1.75
2023-03-29T01:49:54.364Z,-1.76
2023-03-29T01:52:47.387Z,-2.11
2023-03-29T01:55:38.407Z,-3.26
2023-03-29T01:58:28.339Z,-3.30
2023-03-29T02:01:18.894Z,-1.77
2023-03-29T02:04:10.485Z,-2.70
2023-03-29T02:06:57.810Z,-2.34
2023-03-29T02:09:43.929Z,-2.30
2023-03-29T02:12:29.898Z,-2.01
2023-03-29T02:15:18.932Z,-3.41
2023-03-29T02:18:06.808Z,-2.11
2023-03-29T02:20:55.502Z,-2.07
2023-03-29T02:23:46.763Z,-2.74
2023-03-29T02:26:32.489Z,-2.67
2023-03-29T02:29:18.168Z,-2.06
2023-03-29T02:32:13.239Z,-2.06
2023-03-29T02:35:13.017Z,-3.33
2023-03-29T02:38:00.110Z,-2.30
2023-03-29T02:40:46.910Z,-2.04
2023-03-29T02:43:34.441Z,-2.21
2023-03-29T02:46:21.260Z,-2.74
2023-03-29T02:49:08.456Z,-2.24
2023-03-29T02:51:57.888Z,-3.13
2023-03-29T02:54:46.515Z,-1.99
2023-03-29T02:57:32.557Z,-2.01
2023-03-29T03:00:23.110Z,-2.07
2023-03-29T03:03:10.333Z,-2.13
2023-03-29T03:05:55.711Z,-2.17
2023-03-29T03:08:42.103Z,-2.19
2023-03-29T03:11:27.850Z,-2.40
2023-03-29T03:14:13.399Z,-3.43
2023-03-29T03:16:59.092Z,-2.33
2023-03-29T03:19:44.331Z,-3.80
2023-03-29T03:22:30.328Z,-2.42
2023-03-29T03:25:19.538Z,-2.31
2023-03-29T03:28:05.652Z,-2.60
2023-03-29T03:30:51.161Z,-3.55
2023-03-29T03:33:55.596Z,-3.05
2023-03-29T03:36:54.689Z,-2.28
2023-03-29T03:39:40.158Z,-2.36
2023-03-29T03:42:29.594Z,-3.73
2023-03-29T03:45:15.871Z,-3.39
2023-03-29T03:48:14.412Z,-2.20
2023-03-29T03:51:15.379Z,-2.51
2023-03-29T03:54:01.307Z,-3.01
2023-03-29T03:56:53.041Z,-2.20
2023-03-29T03:59:54.363Z,-2.95
2023-03-29T04:02:47.125Z,-2.31
2023-03-29T04:05:34.018Z,-2.55
2023-03-29T04:08:22.460Z,-2.22
2023-03-29T04:11:35.845Z,-3.80
2023-03-29T04:14:21.614Z,-2.49
2023-03-29T04:17:28.965Z,-2.26
2023-03-29T04:20:20.288Z,-2.23
2023-03-29T04:23:06.072Z,-3.59
2023-03-29T04:25:56.649Z,-2.13
2023-03-29T04:29:02.900Z,-2.18
2023-03-29T04:32:03.169Z,-2.50
2023-03-29T04:35:04.788Z,-2.55
2023-03-29T04:37:51.553Z,-2.00
2023-03-29T04:40:39.620Z,-2.37
2023-03-29T04:43:38.430Z,-2.02
2023-03-29T04:46:40.919Z,-2.50
2023-03-29T04:49:56.204Z,-2.33
2023-03-29T04:52:57.529Z,-2.83
2023-03-29T04:55:43.505Z,-2.58
2023-03-29T04:58:32.976Z,-2.06
2023-03-29T05:01:20.596Z,-1.71
2023-03-29T05:04:15.171Z,-3.11
2023-03-29T05:07:15.667Z,-1.61
2023-03-29T05:10:01.503Z,-1.99
2023-03-29T05:12:47.202Z,-1.88
2023-03-29T05:15:32.829Z,-2.45
2023-03-29T05:18:47.920Z,-1.52
2023-03-29T05:21:35.779Z,-1.49
2023-03-29T05:24:26.465Z,-2.74
2023-03-29T05:27:17.979Z,-1.98
2023-03-29T05:30:15.907Z,-2.73
2023-03-29T05:33:12.366Z,-2.59
2023-03-29T05:36:08.839Z,-1.63
2023-03-29T05:38:59.718Z,-2.00
2023-03-29T05:41:46.567Z,-1.75
2023-03-29T05:44:47.876Z,-1.54
2023-03-29T05:47:38.051Z,-1.69
2023-03-29T05:50:24.369Z,-1.46
2023-03-29T05:53:09.880Z,-1.70
2023-03-29T05:55:56.542Z,-2.08
2023-03-29T05:58:46.784Z,-1.68
2023-03-29T06:01:32.407Z,-2.68
2023-03-29T06:04:24.697Z,-2.66
2023-03-29T06:07:38.344Z,-2.82
2023-03-29T06:10:47.157Z,-1.73
2023-03-29T06:13:44.774Z,-2.91
2023-03-29T06:16:30.860Z,-2.94
2023-03-29T06:19:16.260Z,-1.61
2023-03-29T06:22:02.650Z,-2.05
2023-03-29T06:24:51.386Z,-1.44
2023-03-29T06:27:43.465Z,-1.37
2023-03-29T06:30:30.074Z,-1.20
2023-03-29T06:33:20.533Z,-1.52
2023-03-29T06:36:29.288Z,-2.08
2023-03-29T06:39:14.702Z,-2.65
2023-03-29T06:42:21.811Z,-1.04
2023-03-29T06:45:34.461Z,-1.03
2023-03-29T06:48:22.985Z,-1.01
2023-03-29T06:51:08.717Z,-0.95
2023-03-29T06:53:55.155Z,-2.40
2023-03-29T06:56:40.994Z,-0.96
2023-03-29T06:59:31.354Z,-1.57
2023-03-29T07:02:27.431Z,-1.08
2023-03-29T07:05:36.594Z,-1.75
2023-03-29T07:08:31.419Z,-1.52
2023-03-29T07:11:21.283Z,-1.48
2023-03-29T07:14:12.523Z,-2.51
2023-03-29T07:16:58.710Z,-1.11
2023-03-29T07:19:51.341Z,-1.15
2023-03-29T07:22:56.084Z,-1.25
2023-03-29T07:25:41.650Z,-0.87
2023-03-29T07:28:27.470Z,-1.88
2023-03-29T07:31:13.560Z,-1.77
2023-03-29T07:34:10.662Z,-0.89
2023-03-29T07:36:57.752Z,-0.18
2023-03-29T07:39:43.140Z,-0.02
2023-03-29T07:42:54.184Z,0.02
2023-03-29T07:45:42.403Z,-0.02
2023-03-29T07:48:31.054Z,-0.04
2023-03-29T07:51:21.584Z,-0.28
2023-03-29T07:54:10.774Z,-1.70
2023-03-29T07:56:56.360Z,-1.00
2023-03-29T07:59:49.552Z,-0.07
2023-03-29T08:02:52.551Z,-0.32
2023-03-29T08:05:41.675Z,-1.24
2023-03-29T08:08:33.633Z,-0.11
2023-03-29T08:11:25.018Z,-0.16
2023-03-29T08:14:17.404Z,0.02
2023-03-29T08:17:23.274Z,-0.42
2023-03-29T08:20:12.618Z,-1.00
2023-03-29T08:23:01.993Z,0.29
2023-03-29T08:26:08.696Z,0.16
2023-03-29T08:28:55.437Z,0.48
2023-03-29T08:31:45.875Z,-0.60
2023-03-29T08:34:32.151Z,1.05
2023-03-29T08:37:41.092Z,0.54
2023-03-29T08:40:30.145Z,1.15
2023-03-29T08:44:07.172Z,1.29
2023-03-29T08:47:16.368Z,1.27
2023-03-29T08:50:04.852Z,-0.16
2023-03-29T08:53:05.660Z,1.20
2023-03-29T08:56:25.246Z,0.13
2023-03-29T08:59:33.299Z,1.30
2023-03-29T09:02:26.175Z,0.50
2023-03-29T09:05:26.813Z,1.37
2023-03-29T09:08:43.948Z,1.48
2023-03-29T09:11:56.674Z,1.49
2023-03-29T09:15:09.532Z,1.50
2023-03-29T09:18:25.087Z,1.66
2023-03-29T09:21:22.391Z,1.09
2023-03-29T09:24:24.608Z,1.90
2023-03-29T09:27:41.718Z,1.54
2023-03-29T09:30:59.274Z,1.90
2023-03-29T09:33:49.722Z,1.66
2023-03-29T09:36:52.571Z,0.65
2023-03-29T09:39:40.414Z,1.91
2023-03-29T09:42:31.258Z,1.82
2023-03-29T09:45:17.936Z,0.98
2023-03-29T09:48:10.978Z,1.38
2023-03-29T09:51:00.882Z,2.08
2023-03-29T09:54:05.984Z,2.07
2023-03-29T09:57:04.994Z,2.03
2023-03-29T09:59:52.557Z,1.76
2023-03-29T10:02:38.486Z,1.86
2023-03-29T10:05:26.444Z,1.98
2023-03-29T10:08:40.788Z,2.25
2023-03-29T10:11:30.498Z,1.17
2023-03-29T10:14:38.344Z,0.95
2023-03-29T10:17:28.045Z,1.84
2023-03-29T10:20:19.489Z,1.22
2023-03-29T10:23:08.202Z,1.23
2023-03-29T10:25:53.985Z,1.27
2023-03-29T10:28:40.042Z,2.01
2023-03-29T10:31:25.893Z,1.61
2023-03-29T10:34:15.499Z,2.43
2023-03-29T10:37:02.177Z,2.55
2023-03-29T10:39:48.887Z,2.50
2023-03-29T10:42:34.430Z,2.46
2023-03-29T10:45:33.940Z,1.75
2023-03-29T10:48:25.144Z,3.14
2023-03-29T10:51:14.387Z,3.18
2023-03-29T10:54:01.460Z,2.27
2023-03-29T10:56:55.674Z,3.18
2023-03-29T11:00:16.754Z,3.30
2023-03-29T11:03:40.645Z,2.14
2023-03-29T11:06:41.020Z,3.11
2023-03-29T11:09:48.069Z,3.69
2023-03-29T11:12:46.716Z,3.68
2023-03-29T11:15:47.554Z,3.72
2023-03-29T11:18:52.057Z,3.79
2023-03-29T11:22:07.208Z,3.85
2023-03-29T11:25:08.213Z,3.78
2023-03-29T11:28:16.917Z,3.42
2023-03-29T11:31:11.767Z,3.86
2023-03-29T11:34:40.830Z,3.93
2023-03-29T11:37:51.078Z,3.99
2023-03-29T11:41:01.454Z,4.10
2023-03-29T11:43:54.231Z,4.21
2023-03-29T11:46:43.921Z,3.82
2023-03-29T11:49:37.587Z,4.33
2023-03-29T11:52:44.908Z,4.37
2023-03-29T11:55:37.603Z,4.12
2023-03-29T11:58:36.553Z,3.80
2023-03-29T12:01:31.653Z,3.17
2023-03-29T12:04:31.386Z,3.79
2023-03-29T12:07:29.384Z,4.07
2023-03-29T12:10:20.823Z,4.05
2023-03-29T12:13:16.674Z,3.96
2023-03-29T12:16:13.468Z,3.93
2023-03-29T12:19:23.879Z,2.85
2023-03-29T12:22:09.224Z,3.27
2023-03-29T12:25:00.228Z,3.08
2023-03-29T12:28:34.466Z,4.42
2023-03-29T12:31:42.014Z,4.41
2023-03-29T12:34:41.577Z,3.53
2023-03-29T12:38:01.117Z,4.33
2023-03-29T12:41:18.946Z,4.32
2023-03-29T12:44:28.255Z,4.23
2023-03-29T12:47:23.815Z,4.25
2023-03-29T12:50:25.161Z,3.85
2023-03-29T12:53:33.273Z,4.41
2023-03-29T12:56:23.945Z,3.04
2023-03-29T12:59:27.157Z,4.47
2023-03-29T13:02:13.819Z,4.46
2023-03-29T13:05:01.333Z,4.53
2023-03-29T13:07:47.820Z,4.49
2023-03-29T13:10:42.859Z,3.15
2023-03-29T13:13:33.788Z,4.51
2023-03-29T13:16:40.363Z,3.08
2023-03-29T13:19:44.201Z,4.57
2023-03-29T13:22:54.035Z,4.57
2023-03-29T13:26:10.398Z,4.49
2023-03-29T13:29:02.403Z,4.03
2023-03-29T13:32:03.213Z,4.48
2023-03-29T13:35:16.505Z,4.41
2023-03-29T13:38:18.054Z,4.06
2023-03-29T13:41:23.399Z,4.46
2023-03-29T13:44:51.250Z,4.53
2023-03-29T13:47:54.986Z,3.11
2023-03-29T13:50:57.327Z,3.38
2023-03-29T13:53:49.549Z,3.57
2023-03-29T13:56:59.289Z,4.23
2023-03-29T13:59:51.586Z,3.73
2023-03-29T14:02:43.697Z,4.51
2023-03-29T14:05:32.643Z,4.20
2023-03-29T14:08:23.711Z,4.28
2023-03-29T14:11:28.342Z,4.34
2023-03-29T14:14:14.806Z,4.22
2023-03-29T14:17:00.793Z,4.31
2023-03-29T14:19:47.763Z,4.25
2023-03-29T14:22:34.055Z,2.90
2023-03-29T14:25:24.416Z,4.35
2023-03-29T14:28:25.401Z,4.40
2023-03-29T14:31:23.813Z,4.49
2023-03-29T14:34:15.908Z,4.48
2023-03-29T14:37:02.457Z,4.60
2023-03-29T14:39:49.512Z,4.70
2023-03-29T14:42:38.238Z,4.80
2023-03-29T14:45:24.021Z,4.18
2023-03-29T14:48:13.402Z,4.25
2023-03-29T14:51:00.679Z,5.01
2023-03-29T14:53:47.574Z,3.85
2023-03-29T14:56:33.955Z,4.98
2023-03-29T14:59:41.851Z,3.66
2023-03-29T15:02:32.698Z,4.28
2023-03-29T15:05:32.166Z,4.92
2023-03-29T15:08:32.404Z,4.93
2023-03-29T15:11:21.775Z,3.70
2023-03-29T15:14:14.357Z,3.91
2023-03-29T15:17:07.092Z,3.49
2023-03-29T15:20:09.777Z,4.70
2023-03-29T15:23:03.533Z,4.71
2023-03-29T15:26:06.880Z,3.46
2023-03-29T15:28:55.839Z,4.26
2023-03-29T15:31:42.549Z,3.95
2023-03-29T15:34:30.362Z,4.75
2023-03-29T15:37:16.200Z,3.46
2023-03-29T15:40:07.772Z,4.68
2023-03-29T15:42:54.930Z,4.52
2023-03-29T15:45:40.460Z,4.54
2023-03-29T15:48:28.658Z,3.83
2023-03-29T15:51:14.295Z,3.35
2023-03-29T15:53:59.882Z,4.61
2023-03-29T15:56:52.006Z,3.57
2023-03-29T15:59:37.575Z,4.63
2023-03-29T16:02:25.124Z,4.63
2023-03-29T16:05:13.113Z,3.64
2023-03-29T16:07:58.676Z,3.69
2023-03-29T16:10:44.189Z,4.39
2023-03-29T16:13:29.706Z,4.45
2023-03-29T16:16:15.542Z,4.05
2023-03-29T16:19:01.360Z,3.03
2023-03-29T16:21:48.054Z,4.27
2023-03-29T16:24:35.025Z,3.23
2023-03-29T16:27:20.383Z,4.20
2023-03-29T16:30:06.511Z,3.80
2023-03-29T16:32:52.187Z,4.21
2023-03-29T16:35:42.449Z,4.17
2023-03-29T16:38:29.298Z,4.10
2023-03-29T16:41:17.054Z,3.98
2023-03-29T16:44:03.489Z,3.41
2023-03-29T16:46:49.028Z,3.35
2023-03-29T16:49:34.696Z,2.49
2023-03-29T16:52:20.223Z,3.40
2023-03-29T16:55:06.902Z,2.92
2023-03-29T16:57:52.537Z,3.58
2023-03-29T17:00:38.097Z,3.55
2023-03-29T17:03:24.332Z,2.86
2023-03-29T17:06:11.587Z,3.53
2023-03-29T17:08:57.236Z,3.03
2023-03-29T17:11:42.855Z,3.07
2023-03-29T17:14:28.413Z,2.24
2023-03-29T17:17:14.179Z,3.09
2023-03-29T17:20:00.286Z,3.57
2023-03-29T17:22:45.936Z,2.41
2023-03-29T17:25:31.539Z,2.83
2023-03-29T17:28:19.269Z,3.21
2023-03-29T17:31:07.400Z,3.01
2023-03-29T17:33:52.963Z,2.49
2023-03-29T17:36:38.329Z,3.28
2023-03-29T17:39:25.240Z,3.20
2023-03-29T17:42:11.439Z,3.45
2023-03-29T17:44:58.095Z,2.19
2023-03-29T17:47:43.580Z,1.91
2023-03-29T17:50:29.278Z,3.37
2023-03-29T17:53:14.902Z,3.33
2023-03-29T17:56:00.583Z,3.38
2023-03-29T17:58:46.707Z,3.26
2023-03-29T18:01:32.852Z,3.03
2023-03-29T18:04:19.563Z,3.18
2023-03-29T18:07:05.278Z,3.30
2023-03-29T18:09:51.882Z,3.22
2023-03-29T18:12:37.595Z,2.82
2023-03-29T18:15:22.896Z,3.21
2023-03-29T18:18:08.208Z,2.37
2023-03-29T18:20:53.598Z,3.02
2023-03-29T18:23:42.163Z,3.35
2023-03-29T18:26:28.576Z,3.26
2023-03-29T18:29:14.142Z,3.35
2023-03-29T18:32:02.896Z,2.73
2023-03-29T18:34:48.291Z,2.49
2023-03-29T18:37:34.289Z,2.57
2023-03-29T18:40:28.971Z,1.85
2023-03-29T18:43:14.743Z,2.96
2023-03-29T18:46:01.277Z,2.55
2023-03-29T18:48:46.815Z,3.09
2023-03-29T18:51:34.383Z,3.07
2023-03-29T18:54:20.642Z,1.75
2023-03-29T18:57:06.864Z,2.99
2023-03-29T18:59:52.211Z,2.92
2023-03-29T19:02:41.563Z,2.92
2023-03-29T19:05:27.325Z,2.24
2023-03-29T19:08:13.260Z,2.80
2023-03-29T19:11:09.344Z,2.84
2023-03-29T19:13:56.653Z,2.85
2023-03-29T19:16:42.929Z,2.79
2023-03-29T19:19:28.463Z,2.50
2023-03-29T19:22:13.880Z,2.65
2023-03-29T19:24:59.508Z,2.56
2023-03-29T19:27:45.062Z,2.50
2023-03-29T19:30:31.318Z,2.34
2023-03-29T19:33:17.433Z,2.58
2023-03-29T19:36:03.248Z,2.60
2023-03-29T19:38:48.774Z,1.29
2023-03-29T19:41:34.992Z,2.60
2023-03-29T19:44:20.480Z,2.46
2023-03-29T19:47:06.034Z,2.47
2023-03-29T19:49:51.437Z,2.55
2023-03-29T19:52:36.786Z,1.26
2023-03-29T19:55:22.260Z,2.54
2023-03-29T19:58:08.994Z,2.08
2023-03-29T20:00:59.204Z,1.67
2023-03-29T20:03:46.821Z,0.97
2023-03-29T20:06:32.184Z,1.20
2023-03-29T20:09:18.629Z,0.82
2023-03-29T20:12:05.574Z,1.36
2023-03-29T20:14:51.593Z,2.01
2023-03-29T20:17:40.942Z,2.29
2023-03-29T20:20:27.347Z,1.17
2023-03-29T20:23:13.130Z,1.63
2023-03-29T20:25:59.028Z,1.95
2023-03-29T20:28:44.878Z,1.90
2023-03-29T20:31:31.343Z,0.79
2023-03-29T20:34:18.254Z,2.10
2023-03-29T20:37:03.879Z,0.63
2023-03-29T20:39:49.722Z,2.07
2023-03-29T20:42:36.700Z,2.06
2023-03-29T20:45:22.205Z,2.05
2023-03-29T20:48:11.786Z,0.76
2023-03-29T20:50:57.796Z,0.62
2023-03-29T20:53:43.658Z,1.46
2023-03-29T20:56:38.998Z,1.68
2023-03-29T20:59:24.731Z,0.83
2023-03-29T21:02:28.347Z,1.88
2023-03-29T21:05:13.937Z,1.90
2023-03-29T21:07:59.575Z,1.87
2023-03-29T21:10:45.284Z,1.95
2023-03-29T21:13:35.730Z,0.63
2023-03-29T21:16:22.473Z,2.00
2023-03-29T21:19:11.068Z,0.61
2023-03-29T21:21:56.825Z,2.01
2023-03-29T21:24:42.330Z,1.96
2023-03-29T21:27:27.883Z,1.18
2023-03-29T21:30:13.740Z,1.99
2023-03-29T21:32:59.352Z,0.55
2023-03-29T21:35:47.596Z,0.26
2023-03-29T21:38:33.114Z,1.85
2023-03-29T21:41:19.037Z,1.65
2023-03-29T21:44:04.324Z,0.55
2023-03-29T21:46:49.836Z,1.76
2023-03-29T21:49:35.380Z,0.40
2023-03-29T21:52:21.578Z,1.78
2023-03-29T21:55:07.758Z,0.42
2023-03-29T21:57:53.231Z,0.71
2023-03-29T22:00:38.549Z,0.52
2023-03-29T22:03:23.919Z,1.33
2023-03-29T22:06:12.462Z,1.74
2023-03-29T22:09:00.816Z,0.35
2023-03-29T22:11:46.334Z,1.17
2023-03-29T22:14:35.999Z,1.78
2023-03-29T22:17:22.981Z,1.76
2023-03-29T22:20:13.390Z,0.34
2023-03-29T22:22:59.121Z,0.46
2023-03-29T22:25:44.565Z,1.31
2023-03-29T22:28:29.871Z,0.38
2023-03-29T22:31:18.061Z,1.11
2023-03-29T22:34:03.783Z,0.07
2023-03-29T22:36:50.551Z,1.13
2023-03-29T22:39:36.846Z,1.29
2023-03-29T22:42:22.553Z,1.27
2023-03-29T22:45:08.952Z,-0.08
2023-03-29T22:47:54.781Z,-0.07
2023-03-29T22:50:42.894Z,1.27
2023-03-29T22:53:28.403Z,1.29
2023-03-29T22:56:15.629Z,0.63
2023-03-29T22:59:02.398Z,0.96
2023-03-29T23:01:48.521Z,1.25
2023-03-29T23:04:33.940Z,-0.08
2023-03-29T23:07:19.329Z,1.29
2023-03-29T23:10:06.517Z,1.29
2023-03-29T23:12:52.226Z,0.08
2023-03-29T23:15:45.773Z,1.23
2023-03-29T23:18:34.697Z,0.90
2023-03-29T23:21:21.071Z,0.01
2023-03-29T23:24:07.058Z,1.16
2023-03-29T23:26:52.355Z,0.92
2023-03-29T23:29:38.546Z,-0.21
2023-03-29T23:32:24.313Z,0.37
2023-03-29T23:35:09.896Z,0.82
2023-03-29T23:37:55.057Z,0.88
2023-03-29T23:40:40.463Z,1.07
2023-03-29T23:43:27.287Z,0.95
2023-03-29T23:46:15.659Z,0.90
2023-03-29T23:49:01.124Z,0.79
2023-03-29T23:51:48.428Z,0.03
2023-03-29T23:54:34.029Z,-0.38
2023-03-29T23:57:20.470Z,0.85
